sensor_id;sensor_type;location;lat;lon;timestamp;temperature;humidity
66096;SHT31;53861;53.422;14.530;2023-01-15T00:00:31;7.71;95.43
66096;SHT31;53861;53.422;14.530;2023-01-15T00:02:59;7.76;95.16
66096;SHT31;53861;53.422;14.530;2023-01-15T00:05:26;7.79;95.05
66096;SHT31;53861;53.422;14.530;2023-01-15T00:07:53;7.83;95.02
66096;SHT31;53861;53.422;14.530;2023-01-15T00:10:20;7.86;94.95
66096;SHT31;53861;53.422;14.530;2023-01-15T00:12:47;7.89;94.74
66096;SHT31;53861;53.422;14.530;2023-01-15T00:15:14;7.88;94.66
66096;SHT31;53861;53.422;14.530;2023-01-15T00:17:42;7.85;94.71
66096;SHT31;53861;53.422;14.530;2023-01-15T00:20:10;7.86;95.10
66096;SHT31;53861;53.422;14.530;2023-01-15T00:22:37;7.86;94.81
66096;SHT31;53861;53.422;14.530;2023-01-15T00:25:05;7.83;95.00
66096;SHT31;53861;53.422;14.530;2023-01-15T00:27:49;7.90;94.77
66096;SHT31;53861;53.422;14.530;2023-01-15T00:30:17;7.86;94.98
66096;SHT31;53861;53.422;14.530;2023-01-15T00:32:45;7.89;95.13
66096;SHT31;53861;53.422;14.530;2023-01-15T00:35:13;7.89;94.81
66096;SHT31;53861;53.422;14.530;2023-01-15T00:37:41;7.90;94.75
66096;SHT31;53861;53.422;14.530;2023-01-15T00:40:08;7.90;94.85
66096;SHT31;53861;53.422;14.530;2023-01-15T00:42:35;7.93;94.70
66096;SHT31;53861;53.422;14.530;2023-01-15T00:45:03;7.96;94.42
66096;SHT31;53861;53.422;14.530;2023-01-15T00:47:34;7.98;94.48
66096;SHT31;53861;53.422;14.530;2023-01-15T00:50:04;8.00;94.48
66096;SHT31;53861;53.422;14.530;2023-01-15T00:52:31;8.03;94.31
66096;SHT31;53861;53.422;14.530;2023-01-15T00:54:58;8.05;94.35
66096;SHT31;53861;53.422;14.530;2023-01-15T00:57:25;8.05;94.36
66096;SHT31;53861;53.422;14.530;2023-01-15T00:59:52;8.06;94.43
66096;SHT31;53861;53.422;14.530;2023-01-15T01:02:19;8.05;94.48
66096;SHT31;53861;53.422;14.530;2023-01-15T01:04:46;8.07;94.26
66096;SHT31;53861;53.422;14.530;2023-01-15T01:07:15;8.03;94.43
66096;SHT31;53861;53.422;14.530;2023-01-15T01:09:42;8.14;94.22
66096;SHT31;53861;53.422;14.530;2023-01-15T01:12:10;8.22;93.75
66096;SHT31;53861;53.422;14.530;2023-01-15T01:14:37;8.19;93.81
66096;SHT31;53861;53.422;14.530;2023-01-15T01:17:04;8.20;93.78
66096;SHT31;53861;53.422;14.530;2023-01-15T01:19:31;8.19;94.15
66096;SHT31;53861;53.422;14.530;2023-01-15T01:21:58;8.17;94.30
66096;SHT31;53861;53.422;14.530;2023-01-15T01:24:26;8.19;93.92
66096;SHT31;53861;53.422;14.530;2023-01-15T01:26:53;8.26;93.79
66096;SHT31;53861;53.422;14.530;2023-01-15T01:29:21;8.22;93.97
66096;SHT31;53861;53.422;14.530;2023-01-15T01:31:48;8.23;93.95
66096;SHT31;53861;53.422;14.530;2023-01-15T01:34:15;8.28;93.74
66096;SHT31;53861;53.422;14.530;2023-01-15T01:36:43;8.25;93.78
66096;SHT31;53861;53.422;14.530;2023-01-15T01:39:11;8.36;93.28
66096;SHT31;53861;53.422;14.530;2023-01-15T01:41:40;8.29;93.54
66096;SHT31;53861;53.422;14.530;2023-01-15T01:46:49;8.28;93.18
66096;SHT31;53861;53.422;14.530;2023-01-15T01:49:16;8.23;93.40
66096;SHT31;53861;53.422;14.530;2023-01-15T01:51:44;8.28;93.24
66096;SHT31;53861;53.422;14.530;2023-01-15T01:54:14;8.22;93.36
66096;SHT31;53861;53.422;14.530;2023-01-15T01:56:44;8.23;93.34
66096;SHT31;53861;53.422;14.530;2023-01-15T01:59:11;8.32;93.18
66096;SHT31;53861;53.422;14.530;2023-01-15T02:01:39;8.29;93.19
66096;SHT31;53861;53.422;14.530;2023-01-15T02:04:06;8.28;93.27
66096;SHT31;53861;53.422;14.530;2023-01-15T02:06:33;8.30;93.66
66096;SHT31;53861;53.422;14.530;2023-01-15T02:09:00;8.25;93.72
66096;SHT31;53861;53.422;14.530;2023-01-15T02:11:27;8.20;94.10
66096;SHT31;53861;53.422;14.530;2023-01-15T02:13:57;8.30;93.23
66096;SHT31;53861;53.422;14.530;2023-01-15T02:16:27;8.37;93.22
66096;SHT31;53861;53.422;14.530;2023-01-15T02:18:58;8.32;93.51
66096;SHT31;53861;53.422;14.530;2023-01-15T02:21:29;8.40;92.86
66096;SHT31;53861;53.422;14.530;2023-01-15T02:24:02;8.36;93.40
66096;SHT31;53861;53.422;14.530;2023-01-15T02:29:31;8.40;92.95
66096;SHT31;53861;53.422;14.530;2023-01-15T02:32:03;8.44;92.77
66096;SHT31;53861;53.422;14.530;2023-01-15T02:34:34;8.37;93.49
66096;SHT31;53861;53.422;14.530;2023-01-15T02:37:03;8.46;93.05
66096;SHT31;53861;53.422;14.530;2023-01-15T02:39:32;8.44;92.95
66096;SHT31;53861;53.422;14.530;2023-01-15T02:42:01;8.40;93.01
66096;SHT31;53861;53.422;14.530;2023-01-15T02:44:31;8.43;92.80
66096;SHT31;53861;53.422;14.530;2023-01-15T02:46:59;8.37;93.15
66096;SHT31;53861;53.422;14.530;2023-01-15T02:49:29;8.36;93.22
66096;SHT31;53861;53.422;14.530;2023-01-15T02:51:58;8.44;93.13
66096;SHT31;53861;53.422;14.530;2023-01-15T02:54:27;8.44;93.18
66096;SHT31;53861;53.422;14.530;2023-01-15T02:56:57;8.49;93.15
66096;SHT31;53861;53.422;14.530;2023-01-15T02:59:26;8.51;92.84
66096;SHT31;53861;53.422;14.530;2023-01-15T03:01:57;8.61;92.30
66096;SHT31;53861;53.422;14.530;2023-01-15T03:04:27;8.51;93.05
66096;SHT31;53861;53.422;14.530;2023-01-15T03:07:00;8.56;92.62
66096;SHT31;53861;53.422;14.530;2023-01-15T03:09:29;8.50;93.15
66096;SHT31;53861;53.422;14.530;2023-01-15T03:11:59;8.59;92.87
66096;SHT31;53861;53.422;14.530;2023-01-15T03:14:29;8.63;92.67
66096;SHT31;53861;53.422;14.530;2023-01-15T03:17:00;8.64;92.83
66096;SHT31;53861;53.422;14.530;2023-01-15T03:19:30;8.60;93.26
66096;SHT31;53861;53.422;14.530;2023-01-15T03:22:02;8.56;93.75
66096;SHT31;53861;53.422;14.530;2023-01-15T03:24:31;8.53;93.93
66096;SHT31;53861;53.422;14.530;2023-01-15T03:26:58;8.57;93.85
66096;SHT31;53861;53.422;14.530;2023-01-15T03:29:26;8.54;94.34
66096;SHT31;53861;53.422;14.530;2023-01-15T03:31:54;8.49;94.68
66096;SHT31;53861;53.422;14.530;2023-01-15T03:34:23;8.43;95.14
66096;SHT31;53861;53.422;14.530;2023-01-15T03:36:50;8.41;95.23
66096;SHT31;53861;53.422;14.530;2023-01-15T03:39:18;8.53;95.00
66096;SHT31;53861;53.422;14.530;2023-01-15T03:41:49;8.51;95.28
66096;SHT31;53861;53.422;14.530;2023-01-15T03:44:21;8.44;95.60
66096;SHT31;53861;53.422;14.530;2023-01-15T03:46:57;8.41;95.84
66096;SHT31;53861;53.422;14.530;2023-01-15T03:49:30;8.46;95.71
66096;SHT31;53861;53.422;14.530;2023-01-15T03:52:01;8.44;95.64
66096;SHT31;53861;53.422;14.530;2023-01-15T03:54:32;8.47;95.60
66096;SHT31;53861;53.422;14.530;2023-01-15T03:57:02;8.49;95.75
66096;SHT31;53861;53.422;14.530;2023-01-15T03:59:32;8.47;95.80
66096;SHT31;53861;53.422;14.530;2023-01-15T04:02:01;8.46;96.06
66096;SHT31;53861;53.422;14.530;2023-01-15T04:04:30;8.50;96.34
66096;SHT31;53861;53.422;14.530;2023-01-15T04:06:58;8.46;96.05
66096;SHT31;53861;53.422;14.530;2023-01-15T04:09:25;8.39;95.78
66096;SHT31;53861;53.422;14.530;2023-01-15T04:11:53;8.30;95.66
66096;SHT31;53861;53.422;14.530;2023-01-15T04:14:23;8.20;95.79
66096;SHT31;53861;53.422;14.530;2023-01-15T04:16:50;8.05;95.36
66096;SHT31;53861;53.422;14.530;2023-01-15T04:19:18;8.07;95.79
66096;SHT31;53861;53.422;14.530;2023-01-15T04:21:46;7.99;94.71
66096;SHT31;53861;53.422;14.530;2023-01-15T04:24:14;7.86;94.58
66096;SHT31;53861;53.422;14.530;2023-01-15T04:26:41;7.81;93.99
66096;SHT31;53861;53.422;14.530;2023-01-15T04:29:08;7.69;94.33
66096;SHT31;53861;53.422;14.530;2023-01-15T04:31:35;7.62;93.67
66096;SHT31;53861;53.422;14.530;2023-01-15T04:34:02;7.47;93.42
66096;SHT31;53861;53.422;14.530;2023-01-15T04:36:29;7.32;93.30
66096;SHT31;53861;53.422;14.530;2023-01-15T04:39:01;7.23;92.93
66096;SHT31;53861;53.422;14.530;2023-01-15T04:41:28;7.11;93.71
66096;SHT31;53861;53.422;14.530;2023-01-15T04:44:13;7.04;92.43
66096;SHT31;53861;53.422;14.530;2023-01-15T04:46:40;6.90;91.95
66096;SHT31;53861;53.422;14.530;2023-01-15T04:49:08;6.75;92.69
66096;SHT31;53861;53.422;14.530;2023-01-15T04:51:36;6.69;93.20
66096;SHT31;53861;53.422;14.530;2023-01-15T04:54:06;6.69;92.82
66096;SHT31;53861;53.422;14.530;2023-01-15T04:56:36;6.55;93.30
66096;SHT31;53861;53.422;14.530;2023-01-15T04:59:03;6.49;91.53
66096;SHT31;53861;53.422;14.530;2023-01-15T05:01:30;6.41;91.29
66096;SHT31;53861;53.422;14.530;2023-01-15T05:03:58;6.33;94.06
66096;SHT31;53861;53.422;14.530;2023-01-15T05:06:25;6.26;92.33
66096;SHT31;53861;53.422;14.530;2023-01-15T05:08:52;6.33;94.67
66096;SHT31;53861;53.422;14.530;2023-01-15T05:11:20;6.21;91.92
66096;SHT31;53861;53.422;14.530;2023-01-15T05:13:47;6.31;93.93
66096;SHT31;53861;53.422;14.530;2023-01-15T05:16:16;6.25;94.57
66096;SHT31;53861;53.422;14.530;2023-01-15T05:18:44;6.28;93.88
66096;SHT31;53861;53.422;14.530;2023-01-15T05:21:15;6.25;93.80
66096;SHT31;53861;53.422;14.530;2023-01-15T05:23:45;6.29;95.36
66096;SHT31;53861;53.422;14.530;2023-01-15T05:26:12;6.28;93.58
66096;SHT31;53861;53.422;14.530;2023-01-15T05:28:41;6.31;94.62
66096;SHT31;53861;53.422;14.530;2023-01-15T05:31:08;6.31;94.91
66096;SHT31;53861;53.422;14.530;2023-01-15T05:33:35;6.32;94.90
66096;SHT31;53861;53.422;14.530;2023-01-15T05:36:03;6.26;93.28
66096;SHT31;53861;53.422;14.530;2023-01-15T05:38:31;6.25;95.98
66096;SHT31;53861;53.422;14.530;2023-01-15T05:40:58;6.15;94.25
66096;SHT31;53861;53.422;14.530;2023-01-15T05:43:28;6.18;96.51
66096;SHT31;53861;53.422;14.530;2023-01-15T05:46:01;6.22;94.35
66096;SHT31;53861;53.422;14.530;2023-01-15T05:48:28;6.14;93.00
66096;SHT31;53861;53.422;14.530;2023-01-15T05:50:55;6.14;95.00
66096;SHT31;53861;53.422;14.530;2023-01-15T05:53:22;6.15;93.85
66096;SHT31;53861;53.422;14.530;2023-01-15T05:55:49;6.17;95.14
66096;SHT31;53861;53.422;14.530;2023-01-15T05:58:16;6.12;93.93
66096;SHT31;53861;53.422;14.530;2023-01-15T06:00:42;6.18;94.88
66096;SHT31;53861;53.422;14.530;2023-01-15T06:03:11;6.14;93.33
66096;SHT31;53861;53.422;14.530;2023-01-15T06:05:38;6.24;95.24
66096;SHT31;53861;53.422;14.530;2023-01-15T06:08:05;6.15;94.19
66096;SHT31;53861;53.422;14.530;2023-01-15T06:10:32;6.04;91.95
66096;SHT31;53861;53.422;14.530;2023-01-15T06:12:59;6.04;94.00
66096;SHT31;53861;53.422;14.530;2023-01-15T06:15:26;6.05;94.55
66096;SHT31;53861;53.422;14.530;2023-01-15T06:17:53;6.10;94.83
66096;SHT31;53861;53.422;14.530;2023-01-15T06:20:22;6.15;92.75
66096;SHT31;53861;53.422;14.530;2023-01-15T06:22:49;6.14;94.28
66096;SHT31;53861;53.422;14.530;2023-01-15T06:25:16;6.11;92.73
66096;SHT31;53861;53.422;14.530;2023-01-15T06:27:43;6.17;94.01
66096;SHT31;53861;53.422;14.530;2023-01-15T06:30:10;6.11;92.67
66096;SHT31;53861;53.422;14.530;2023-01-15T06:32:37;6.20;93.33
66096;SHT31;53861;53.422;14.530;2023-01-15T06:35:04;6.01;92.44
66096;SHT31;53861;53.422;14.530;2023-01-15T06:37:33;6.01;92.26
66096;SHT31;53861;53.422;14.530;2023-01-15T06:40:00;6.02;92.91
66096;SHT31;53861;53.422;14.530;2023-01-15T06:42:27;6.07;90.65
66096;SHT31;53861;53.422;14.530;2023-01-15T06:45:11;6.05;93.52
66096;SHT31;53861;53.422;14.530;2023-01-15T06:47:55;5.97;91.51
66096;SHT31;53861;53.422;14.530;2023-01-15T06:50:23;5.90;89.85
66096;SHT31;53861;53.422;14.530;2023-01-15T06:52:51;5.81;92.21
66096;SHT31;53861;53.422;14.530;2023-01-15T06:55:18;5.80;91.74
66096;SHT31;53861;53.422;14.530;2023-01-15T06:57:45;5.83;91.44
66096;SHT31;53861;53.422;14.530;2023-01-15T07:00:13;5.87;92.09
66096;SHT31;53861;53.422;14.530;2023-01-15T07:02:40;5.88;93.19
66096;SHT31;53861;53.422;14.530;2023-01-15T07:05:07;5.86;90.37
66096;SHT31;53861;53.422;14.530;2023-01-15T07:07:34;5.74;90.00
66096;SHT31;53861;53.422;14.530;2023-01-15T07:10:03;5.69;89.81
66096;SHT31;53861;53.422;14.530;2023-01-15T07:12:30;5.66;91.85
66096;SHT31;53861;53.422;14.530;2023-01-15T07:14:57;5.67;91.60
66096;SHT31;53861;53.422;14.530;2023-01-15T07:17:24;5.69;91.02
66096;SHT31;53861;53.422;14.530;2023-01-15T07:19:51;5.69;90.13
66096;SHT31;53861;53.422;14.530;2023-01-15T07:22:18;5.71;90.70
66096;SHT31;53861;53.422;14.530;2023-01-15T07:24:45;5.69;91.33
66096;SHT31;53861;53.422;14.530;2023-01-15T07:27:13;5.70;91.91
66096;SHT31;53861;53.422;14.530;2023-01-15T07:29:40;5.64;91.45
66096;SHT31;53861;53.422;14.530;2023-01-15T07:32:07;5.64;89.94
66096;SHT31;53861;53.422;14.530;2023-01-15T07:34:35;5.60;90.87
66096;SHT31;53861;53.422;14.530;2023-01-15T07:37:02;5.57;90.48
66096;SHT31;53861;53.422;14.530;2023-01-15T07:39:29;5.63;89.17
66096;SHT31;53861;53.422;14.530;2023-01-15T07:41:57;5.63;92.17
66096;SHT31;53861;53.422;14.530;2023-01-15T07:44:42;5.60;89.77
66096;SHT31;53861;53.422;14.530;2023-01-15T07:47:27;5.56;91.09
66096;SHT31;53861;53.422;14.530;2023-01-15T07:50:11;5.57;91.54
66096;SHT31;53861;53.422;14.530;2023-01-15T07:52:38;5.64;89.81
66096;SHT31;53861;53.422;14.530;2023-01-15T07:55:06;5.69;91.12
66096;SHT31;53861;53.422;14.530;2023-01-15T07:57:35;5.67;90.38
66096;SHT31;53861;53.422;14.530;2023-01-15T08:00:04;5.61;91.26
66096;SHT31;53861;53.422;14.530;2023-01-15T08:02:31;5.56;91.15
66096;SHT31;53861;53.422;14.530;2023-01-15T08:04:58;5.53;92.49
66096;SHT31;53861;53.422;14.530;2023-01-15T08:07:25;5.57;91.30
66096;SHT31;53861;53.422;14.530;2023-01-15T08:09:52;5.60;91.06
66096;SHT31;53861;53.422;14.530;2023-01-15T08:12:19;5.57;92.50
66096;SHT31;53861;53.422;14.530;2023-01-15T08:15:05;5.60;91.20
66096;SHT31;53861;53.422;14.530;2023-01-15T08:17:39;5.59;90.68
66096;SHT31;53861;53.422;14.530;2023-01-15T08:20:06;5.57;90.80
66096;SHT31;53861;53.422;14.530;2023-01-15T08:22:34;5.64;93.92
66096;SHT31;53861;53.422;14.530;2023-01-15T08:25:03;5.54;91.95
66096;SHT31;53861;53.422;14.530;2023-01-15T08:27:30;5.59;92.54
66096;SHT31;53861;53.422;14.530;2023-01-15T08:29:57;5.49;91.68
66096;SHT31;53861;53.422;14.530;2023-01-15T08:32:25;5.53;91.55
66096;SHT31;53861;53.422;14.530;2023-01-15T08:34:52;5.49;93.24
66096;SHT31;53861;53.422;14.530;2023-01-15T08:37:19;5.46;90.76
66096;SHT31;53861;53.422;14.530;2023-01-15T08:39:46;5.60;89.91
66096;SHT31;53861;53.422;14.530;2023-01-15T08:42:15;5.60;90.86
66096;SHT31;53861;53.422;14.530;2023-01-15T08:44:42;5.66;92.48
66096;SHT31;53861;53.422;14.530;2023-01-15T08:47:09;5.53;92.26
66096;SHT31;53861;53.422;14.530;2023-01-15T08:49:37;5.63;90.75
66096;SHT31;53861;53.422;14.530;2023-01-15T08:52:04;5.64;90.88
66096;SHT31;53861;53.422;14.530;2023-01-15T08:54:31;5.74;90.91
66096;SHT31;53861;53.422;14.530;2023-01-15T08:56:58;5.67;91.18
66096;SHT31;53861;53.422;14.530;2023-01-15T08:59:26;5.77;92.45
66096;SHT31;53861;53.422;14.530;2023-01-15T09:01:53;5.74;92.29
66096;SHT31;53861;53.422;14.530;2023-01-15T09:04:20;5.77;90.44
66096;SHT31;53861;53.422;14.530;2023-01-15T09:06:54;5.80;92.22
66096;SHT31;53861;53.422;14.530;2023-01-15T09:09:21;5.81;92.09
66096;SHT31;53861;53.422;14.530;2023-01-15T09:11:48;5.88;90.16
66096;SHT31;53861;53.422;14.530;2023-01-15T09:17:01;5.90;91.36
66096;SHT31;53861;53.422;14.530;2023-01-15T09:19:28;5.86;89.51
66096;SHT31;53861;53.422;14.530;2023-01-15T09:22:00;5.83;89.82
66096;SHT31;53861;53.422;14.530;2023-01-15T09:24:34;5.86;89.83
66096;SHT31;53861;53.422;14.530;2023-01-15T09:27:01;5.98;91.24
66096;SHT31;53861;53.422;14.530;2023-01-15T09:29:29;6.08;89.90
66096;SHT31;53861;53.422;14.530;2023-01-15T09:31:56;6.11;90.14
66096;SHT31;53861;53.422;14.530;2023-01-15T09:34:26;6.11;91.63
66096;SHT31;53861;53.422;14.530;2023-01-15T09:36:53;6.17;90.51
66096;SHT31;53861;53.422;14.530;2023-01-15T09:39:22;6.15;89.52
66096;SHT31;53861;53.422;14.530;2023-01-15T09:41:58;6.31;91.23
66096;SHT31;53861;53.422;14.530;2023-01-15T09:44:36;6.38;88.28
66096;SHT31;53861;53.422;14.530;2023-01-15T09:47:07;6.38;89.66
66096;SHT31;53861;53.422;14.530;2023-01-15T09:49:39;6.43;87.79
66096;SHT31;53861;53.422;14.530;2023-01-15T09:52:24;6.32;88.17
66096;SHT31;53861;53.422;14.530;2023-01-15T09:54:58;6.43;87.72
66096;SHT31;53861;53.422;14.530;2023-01-15T09:57:27;6.46;88.55
66096;SHT31;53861;53.422;14.530;2023-01-15T09:59:58;6.41;87.83
66096;SHT31;53861;53.422;14.530;2023-01-15T10:02:29;6.65;86.96
66096;SHT31;53861;53.422;14.530;2023-01-15T10:04:58;6.79;87.97
66096;SHT31;53861;53.422;14.530;2023-01-15T10:07:32;7.00;88.18
66096;SHT31;53861;53.422;14.530;2023-01-15T10:10:05;6.94;86.75
66096;SHT31;53861;53.422;14.530;2023-01-15T10:12:33;6.96;85.53
66096;SHT31;53861;53.422;14.530;2023-01-15T10:15:09;6.90;89.28
66096;SHT31;53861;53.422;14.530;2023-01-15T10:17:41;6.89;87.21
66096;SHT31;53861;53.422;14.530;2023-01-15T10:20:12;6.87;86.80
66096;SHT31;53861;53.422;14.530;2023-01-15T10:22:48;6.86;87.95
66096;SHT31;53861;53.422;14.530;2023-01-15T10:25:18;6.97;86.92
66096;SHT31;53861;53.422;14.530;2023-01-15T10:27:49;6.90;85.07
66096;SHT31;53861;53.422;14.530;2023-01-15T10:30:20;6.97;87.59
66096;SHT31;53861;53.422;14.530;2023-01-15T10:32:50;6.97;86.92
66096;SHT31;53861;53.422;14.530;2023-01-15T10:35:23;6.96;86.26
66096;SHT31;53861;53.422;14.530;2023-01-15T10:37:52;7.07;87.09
66096;SHT31;53861;53.422;14.530;2023-01-15T10:40:26;7.15;85.46
66096;SHT31;53861;53.422;14.530;2023-01-15T10:42:58;7.18;86.13
66096;SHT31;53861;53.422;14.530;2023-01-15T10:45:29;7.31;86.13
66096;SHT31;53861;53.422;14.530;2023-01-15T10:47:59;7.25;85.62
66096;SHT31;53861;53.422;14.530;2023-01-15T10:50:27;7.08;86.58
66096;SHT31;53861;53.422;14.530;2023-01-15T10:52:59;7.00;85.16
66096;SHT31;53861;53.422;14.530;2023-01-15T10:55:30;7.10;86.06
66096;SHT31;53861;53.422;14.530;2023-01-15T10:58:02;7.07;87.18
66096;SHT31;53861;53.422;14.530;2023-01-15T11:00:30;7.13;85.19
66096;SHT31;53861;53.422;14.530;2023-01-15T11:02:58;7.17;87.76
66096;SHT31;53861;53.422;14.530;2023-01-15T11:05:26;7.20;88.85
66096;SHT31;53861;53.422;14.530;2023-01-15T11:07:53;7.13;86.58
66096;SHT31;53861;53.422;14.530;2023-01-15T11:10:21;7.14;84.83
66096;SHT31;53861;53.422;14.530;2023-01-15T11:12:51;7.24;84.58
66096;SHT31;53861;53.422;14.530;2023-01-15T11:15:37;7.23;84.13
66096;SHT31;53861;53.422;14.530;2023-01-15T11:18:22;7.23;84.97
66096;SHT31;53861;53.422;14.530;2023-01-15T11:21:11;7.23;83.49
66096;SHT31;53861;53.422;14.530;2023-01-15T11:23:39;7.23;85.93
66096;SHT31;53861;53.422;14.530;2023-01-15T11:26:06;7.38;84.06
66096;SHT31;53861;53.422;14.530;2023-01-15T11:28:35;7.40;84.32
66096;SHT31;53861;53.422;14.530;2023-01-15T11:31:04;7.55;83.29
66096;SHT31;53861;53.422;14.530;2023-01-15T11:33:32;7.65;82.19
66096;SHT31;53861;53.422;14.530;2023-01-15T11:36:00;7.71;82.82
66096;SHT31;53861;53.422;14.530;2023-01-15T11:38:27;7.68;81.76
66096;SHT31;53861;53.422;14.530;2023-01-15T11:40:55;7.71;84.24
66096;SHT31;53861;53.422;14.530;2023-01-15T11:43:25;7.76;83.06
66096;SHT31;53861;53.422;14.530;2023-01-15T11:46:27;8.03;83.52
66096;SHT31;53861;53.422;14.530;2023-01-15T11:49:13;8.33;80.03
66096;SHT31;53861;53.422;14.530;2023-01-15T11:51:59;8.36;82.57
66096;SHT31;53861;53.422;14.530;2023-01-15T11:54:30;8.29;80.65
66096;SHT31;53861;53.422;14.530;2023-01-15T11:56:58;8.14;81.32
66096;SHT31;53861;53.422;14.530;2023-01-15T11:59:26;8.00;80.64
66096;SHT31;53861;53.422;14.530;2023-01-15T12:01:55;8.26;82.99
66096;SHT31;53861;53.422;14.530;2023-01-15T12:04:26;8.43;80.13
66096;SHT31;53861;53.422;14.530;2023-01-15T12:06:55;8.13;82.38
66096;SHT31;53861;53.422;14.530;2023-01-15T12:09:23;8.13;79.33
66096;SHT31;53861;53.422;14.530;2023-01-15T12:11:59;8.41;79.11
66096;SHT31;53861;53.422;14.530;2023-01-15T12:14:32;8.78;78.59
66096;SHT31;53861;53.422;14.530;2023-01-15T12:17:10;9.19;77.59
66096;SHT31;53861;53.422;14.530;2023-01-15T12:19:40;9.63;77.21
66096;SHT31;53861;53.422;14.530;2023-01-15T12:22:16;9.28;79.40
66096;SHT31;53861;53.422;14.530;2023-01-15T12:27:34;8.64;76.84
66096;SHT31;53861;53.422;14.530;2023-01-15T12:30:05;8.60;78.96
66096;SHT31;53861;53.422;14.530;2023-01-15T12:32:42;8.53;77.34
66096;SHT31;53861;53.422;14.530;2023-01-15T12:35:13;8.37;77.63
66096;SHT31;53861;53.422;14.530;2023-01-15T12:37:42;8.36;81.13
66096;SHT31;53861;53.422;14.530;2023-01-15T12:40:16;8.30;79.78
66096;SHT31;53861;53.422;14.530;2023-01-15T12:42:45;8.03;78.13
66096;SHT31;53861;53.422;14.530;2023-01-15T12:45:32;8.16;82.28
66096;SHT31;53861;53.422;14.530;2023-01-15T12:48:03;8.39;77.30
66096;SHT31;53861;53.422;14.530;2023-01-15T12:50:31;8.29;78.75
66096;SHT31;53861;53.422;14.530;2023-01-15T12:53:03;8.34;79.85
66096;SHT31;53861;53.422;14.530;2023-01-15T12:55:33;8.39;78.81
66096;SHT31;53861;53.422;14.530;2023-01-15T12:58:02;8.53;80.07
66096;SHT31;53861;53.422;14.530;2023-01-15T13:00:32;9.10;76.49
66096;SHT31;53861;53.422;14.530;2023-01-15T13:03:06;9.29;77.94
66096;SHT31;53861;53.422;14.530;2023-01-15T13:05:38;9.56;77.16
66096;SHT31;53861;53.422;14.530;2023-01-15T13:08:09;9.66;78.10
66096;SHT31;53861;53.422;14.530;2023-01-15T13:10:37;9.53;72.49
66096;SHT31;53861;53.422;14.530;2023-01-15T13:13:16;9.40;72.47
66096;SHT31;53861;53.422;14.530;2023-01-15T13:15:47;9.47;74.01
66096;SHT31;53861;53.422;14.530;2023-01-15T13:18:21;9.08;73.29
66096;SHT31;53861;53.422;14.530;2023-01-15T13:20:51;9.00;75.61
66096;SHT31;53861;53.422;14.530;2023-01-15T13:23:26;8.80;76.27
66096;SHT31;53861;53.422;14.530;2023-01-15T13:26:06;8.74;74.99
66096;SHT31;53861;53.422;14.530;2023-01-15T13:28:43;8.22;79.17
66096;SHT31;53861;53.422;14.530;2023-01-15T13:31:27;8.00;78.39
66096;SHT31;53861;53.422;14.530;2023-01-15T13:34:00;7.96;75.48
66096;SHT31;53861;53.422;14.530;2023-01-15T13:36:31;8.16;74.15
66096;SHT31;53861;53.422;14.530;2023-01-15T13:39:00;8.22;75.51
66096;SHT31;53861;53.422;14.530;2023-01-15T13:41:30;8.30;73.69
66096;SHT31;53861;53.422;14.530;2023-01-15T13:44:16;8.30;75.40
66096;SHT31;53861;53.422;14.530;2023-01-15T13:46:45;8.07;76.92
66096;SHT31;53861;53.422;14.530;2023-01-15T13:49:18;8.12;77.45
66096;SHT31;53861;53.422;14.530;2023-01-15T13:51:47;8.19;75.19
66096;SHT31;53861;53.422;14.530;2023-01-15T13:54:15;7.86;77.05
66096;SHT31;53861;53.422;14.530;2023-01-15T13:56:44;7.83;74.94
66096;SHT31;53861;53.422;14.530;2023-01-15T13:59:29;7.83;76.61
66096;SHT31;53861;53.422;14.530;2023-01-15T14:02:24;7.96;79.11
66096;SHT31;53861;53.422;14.530;2023-01-15T14:04:52;7.83;75.50
66096;SHT31;53861;53.422;14.530;2023-01-15T14:07:21;7.52;77.41
66096;SHT31;53861;53.422;14.530;2023-01-15T14:09:49;7.43;75.02
66096;SHT31;53861;53.422;14.530;2023-01-15T14:12:19;7.37;74.70
66096;SHT31;53861;53.422;14.530;2023-01-15T14:14:58;7.24;76.63
66096;SHT31;53861;53.422;14.530;2023-01-15T14:17:35;7.18;78.85
66096;SHT31;53861;53.422;14.530;2023-01-15T14:20:15;7.13;76.85
66096;SHT31;53861;53.422;14.530;2023-01-15T14:22:51;6.99;78.47
66096;SHT31;53861;53.422;14.530;2023-01-15T14:25:34;7.07;75.83
66096;SHT31;53861;53.422;14.530;2023-01-15T14:28:10;7.11;75.09
66096;SHT31;53861;53.422;14.530;2023-01-15T14:31:01;7.07;76.71
66096;SHT31;53861;53.422;14.530;2023-01-15T14:33:31;7.18;74.84
66096;SHT31;53861;53.422;14.530;2023-01-15T14:36:09;7.17;75.89
66096;SHT31;53861;53.422;14.530;2023-01-15T14:38:36;7.04;76.30
66096;SHT31;53861;53.422;14.530;2023-01-15T14:41:11;7.07;76.33
66096;SHT31;53861;53.422;14.530;2023-01-15T14:43:40;6.94;77.79
66096;SHT31;53861;53.422;14.530;2023-01-15T14:46:13;7.00;76.36
66096;SHT31;53861;53.422;14.530;2023-01-15T14:48:44;6.94;76.48
66096;SHT31;53861;53.422;14.530;2023-01-15T14:51:13;6.92;78.06
66096;SHT31;53861;53.422;14.530;2023-01-15T14:53:41;6.93;76.05
66096;SHT31;53861;53.422;14.530;2023-01-15T14:56:13;6.80;78.97
66096;SHT31;53861;53.422;14.530;2023-01-15T14:58:44;6.80;76.08
66096;SHT31;53861;53.422;14.530;2023-01-15T15:01:26;6.72;76.86
66096;SHT31;53861;53.422;14.530;2023-01-15T15:03:58;6.57;78.55
66096;SHT31;53861;53.422;14.530;2023-01-15T15:06:30;6.59;77.06
66096;SHT31;53861;53.422;14.530;2023-01-15T15:08:59;6.52;77.67
66096;SHT31;53861;53.422;14.530;2023-01-15T15:11:30;6.39;77.02
66096;SHT31;53861;53.422;14.530;2023-01-15T15:14:16;6.38;76.79
66096;SHT31;53861;53.422;14.530;2023-01-15T15:16:44;6.43;76.52
66096;SHT31;53861;53.422;14.530;2023-01-15T15:19:13;6.32;79.80
66096;SHT31;53861;53.422;14.530;2023-01-15T15:21:45;6.25;77.03
66096;SHT31;53861;53.422;14.530;2023-01-15T15:24:17;6.20;78.76
66096;SHT31;53861;53.422;14.530;2023-01-15T15:26:47;6.24;77.10
66096;SHT31;53861;53.422;14.530;2023-01-15T15:29:15;6.22;78.44
66096;SHT31;53861;53.422;14.530;2023-01-15T15:31:43;6.36;76.55
66096;SHT31;53861;53.422;14.530;2023-01-15T15:34:14;6.36;78.18
66096;SHT31;53861;53.422;14.530;2023-01-15T15:36:44;6.36;77.22
66096;SHT31;53861;53.422;14.530;2023-01-15T15:39:14;6.29;76.80
66096;SHT31;53861;53.422;14.530;2023-01-15T15:41:43;6.18;77.60
66096;SHT31;53861;53.422;14.530;2023-01-15T15:44:30;6.17;77.70
66096;SHT31;53861;53.422;14.530;2023-01-15T15:47:19;6.10;77.62
66096;SHT31;53861;53.422;14.530;2023-01-15T15:50:03;6.04;77.80
66096;SHT31;53861;53.422;14.530;2023-01-15T15:52:32;5.98;77.63
66096;SHT31;53861;53.422;14.530;2023-01-15T15:55:00;5.93;78.80
66096;SHT31;53861;53.422;14.530;2023-01-15T15:57:31;5.86;77.91
66096;SHT31;53861;53.422;14.530;2023-01-15T15:59:59;5.84;78.67